Time;durP1;ratioP1;P1;durP2;ratioP2;P2;SDS_P1;SDS_P2;PMS_P1;PMS_P2;Temp;Humidity;BMP_temperature;BMP_pressure;BME280_temperature;BME280_humidity;BME280_pressure;Samples;Min_cycle;Max_cycle;Signal;HPM_P1;HPM_P2
2022/11/21 00:00:48;;;;;;;7.53;4.13;;;3.10;99.90;;;;;;5048108;28;20563;-48
2022/11/21 00:03:15;;;;;;;9.90;4.22;;;3.10;99.90;;;;;;5048218;28;20489;-49
2022/11/21 00:05:47;;;;;;;8.85;4.32;;;3.10;99.90;;;;;;5042214;28;20065;-51
2022/11/21 00:08:16;;;;;;;7.53;3.75;;;3.10;99.90;;;;;;5046878;28;20048;-49
2022/11/21 00:10:43;;;;;;;9.45;4.43;;;3.80;99.90;;;;;;5045354;28;20592;-48
2022/11/21 00:13:18;;;;;;;9.93;4.30;;;3.10;99.90;;;;;;5041511;28;20089;-49
2022/11/21 00:15:46;;;;;;;8.57;4.20;;;3.20;99.90;;;;;;5045305;28;20079;-50
2022/11/21 00:18:13;;;;;;;5.72;3.78;;;3.20;99.90;;;;;;5046338;28;20047;-50
2022/11/21 00:20:41;;;;;;;10.60;4.63;;;3.20;99.90;;;;;;5047617;28;20132;-51
2022/11/21 00:23:08;;;;;;;8.32;3.65;;;3.20;99.90;;;;;;5039544;28;20069;-49
2022/11/21 00:25:36;;;;;;;8.55;4.10;;;3.10;99.90;;;;;;5049475;28;20041;-48
2022/11/21 00:28:04;;;;;;;9.02;4.20;;;3.20;99.90;;;;;;5041050;28;20498;-49
2022/11/21 00:30:30;;;;;;;;;;;3.20;99.90;;;;;;5040887;28;20037;-50
2022/11/21 00:32:58;;;;;;;7.38;4.00;;;3.20;99.90;;;;;;5044030;28;20024;-48
2022/11/21 00:35:24;;;;;;;11.20;3.80;;;3.30;99.90;;;;;;5047665;28;20517;-48
2022/11/21 00:37:51;;;;;;;6.90;3.47;;;3.30;99.90;;;;;;5048847;28;20558;-49
2022/11/21 00:40:18;;;;;;;6.32;3.75;;;3.30;99.90;;;;;;5049590;28;20048;-50
2022/11/21 00:42:45;;;;;;;8.45;3.33;;;3.30;99.90;;;;;;5047617;28;20084;-48
2022/11/21 00:45:12;;;;;;;8.13;3.70;;;3.30;99.90;;;;;;5049762;28;20128;-50
2022/11/21 00:47:38;;;;;;;8.55;4.38;;;3.20;99.90;;;;;;5051084;28;20045;-48
2022/11/21 00:50:05;;;;;;;8.57;4.05;;;3.20;99.90;;;;;;5052787;28;20041;-49
2022/11/21 00:52:32;;;;;;;11.25;4.32;;;3.20;99.90;;;;;;5052262;28;20096;-51
2022/11/21 00:54:59;;;;;;;6.40;4.28;;;3.20;99.90;;;;;;5053226;28;20044;-51
2022/11/21 00:57:26;;;;;;;8.63;4.35;;;3.10;99.90;;;;;;5051075;28;20088;-48
2022/11/21 01:04:33;;;;;;;8.40;4.25;;;3.10;99.90;;;;;;5032316;28;20057;-48
2022/11/21 01:07:00;;;;;;;8.60;4.45;;;2.90;99.90;;;;;;5032470;28;20072;-46
2022/11/21 01:09:27;;;;;;;9.88;4.57;;;2.90;99.90;;;;;;5032844;28;20053;-46
2022/11/21 01:11:55;;;;;;;8.80;4.15;;;2.90;99.90;;;;;;5032459;28;20049;-46
2022/11/21 01:14:22;;;;;;;8.23;4.00;;;3.00;99.90;;;;;;5033932;28;20077;-47
2022/11/21 01:16:49;;;;;;;9.32;4.47;;;3.00;99.90;;;;;;5052777;28;20515;-46
2022/11/21 01:19:16;;;;;;;7.00;3.28;;;3.00;99.90;;;;;;5032930;28;20045;-47
2022/11/21 01:21:43;;;;;;;10.52;4.68;;;3.10;99.90;;;;;;5044088;28;20068;-49
2022/11/21 01:24:11;;;;;;;6.78;4.00;;;3.10;99.90;;;;;;5052224;28;20107;-47
2022/11/21 01:26:38;;;;;;;9.43;4.00;;;3.10;99.90;;;;;;5051064;28;20159;-47
2022/11/21 01:29:06;;;;;;;7.10;3.55;;;3.10;99.90;;;;;;5032367;28;20049;-45
2022/11/21 01:31:32;;;;;;;5.40;2.75;;;3.10;99.90;;;;;;5050042;28;20528;-46
2022/11/21 01:34:00;;;;;;;5.28;2.60;;;3.20;99.90;;;;;;5042394;28;20069;-47
2022/11/21 01:36:31;;;;;;;6.03;3.22;;;3.30;99.90;;;;;;5049324;28;20505;-46
2022/11/21 01:39:01;;;;;;;11.80;3.63;;;3.30;99.90;;;;;;5032056;28;20060;-46
2022/11/21 01:41:35;;;;;;;6.45;2.78;;;3.40;99.90;;;;;;5031200;28;20073;-46
2022/11/21 01:44:15;;;;;;;4.18;1.85;;;3.30;99.90;;;;;;5047531;28;20409;-46
2022/11/21 01:46:42;;;;;;;5.00;2.13;;;3.30;99.90;;;;;;5044320;28;20112;-46
2022/11/21 01:49:14;;;;;;;4.93;2.35;;;3.30;99.90;;;;;;5032833;28;20129;-46
2022/11/21 01:51:57;;;;;;;5.30;1.55;;;3.30;99.90;;;;;;5039571;28;20492;-46
2022/11/21 01:54:32;;;;;;;2.60;1.45;;;3.30;99.90;;;;;;5053012;28;20456;-47
2022/11/21 01:57:13;;;;;;;2.83;1.70;;;3.40;99.90;;;;;;5038513;28;20121;-46
2022/11/21 01:59:46;;;;;;;3.10;2.08;;;3.40;99.90;;;;;;5044422;28;20084;-46
2022/11/21 02:02:16;;;;;;;7.03;2.63;;;3.40;99.90;;;;;;5043042;28;20524;-46
2022/11/21 02:04:43;;;;;;;4.22;2.70;;;3.40;99.90;;;;;;5051571;28;20041;-46
2022/11/21 02:07:12;;;;;;;4.60;2.92;;;3.30;99.90;;;;;;5033522;28;20037;-46
2022/11/21 02:09:44;;;;;;;7.10;3.95;;;3.30;99.90;;;;;;5031950;28;20049;-46
2022/11/21 02:12:17;;;;;;;5.50;3.47;;;3.30;99.90;;;;;;5051068;28;20061;-47
2022/11/21 02:14:44;;;;;;;9.57;3.63;;;3.20;99.90;;;;;;5047139;28;20102;-46
2022/11/21 02:17:10;;;;;;;5.78;3.17;;;3.30;99.90;;;;;;5032508;28;20072;-48
2022/11/21 02:19:51;;;;;;;8.65;3.22;;;3.20;99.90;;;;;;5031480;28;20069;-47
2022/11/21 02:22:26;;;;;;;6.60;2.95;;;3.20;99.90;;;;;;5032441;28;20077;-46
2022/11/21 02:25:04;;;;;;;4.55;2.50;;;3.20;99.90;;;;;;5031857;28;20069;-46
2022/11/21 02:27:31;;;;;;;14.48;3.38;;;3.30;99.90;;;;;;5040568;28;20551;-46
2022/11/21 02:29:58;;;;;;;8.02;2.88;;;3.30;99.90;;;;;;5031227;28;20135;-46
2022/11/21 02:32:33;;;;;;;5.90;2.78;;;3.30;99.90;;;;;;5032265;28;20113;-46
2022/11/21 02:35:00;;;;;;;7.00;3.33;;;3.40;99.90;;;;;;5037579;28;20037;-46
2022/11/21 02:37:28;;;;;;;4.15;2.75;;;3.30;99.90;;;;;;5050564;28;20041;-46
2022/11/21 02:39:57;;;;;;;5.22;2.90;;;3.40;99.90;;;;;;5046444;28;20076;-46
2022/11/21 02:42:33;;;;;;;5.40;3.22;;;3.30;99.90;;;;;;5047606;28;20073;-47
2022/11/21 02:45:13;;;;;;;7.93;3.35;;;3.20;99.90;;;;;;5050410;28;20132;-46
2022/11/21 02:47:41;;;;;;;5.60;3.38;;;3.20;99.90;;;;;;5049466;28;20068;-46
2022/11/21 02:50:14;;;;;;;7.65;3.83;;;3.20;99.90;;;;;;5035299;28;20292;-46
2022/11/21 02:52:41;;;;;;;7.80;3.25;;;3.20;99.90;;;;;;5030915;28;20191;-46
2022/11/21 02:55:10;;;;;;;10.60;3.97;;;3.20;99.90;;;;;;5047260;28;20607;-46
2022/11/21 02:57:38;;;;;;;9.20;4.00;;;3.10;99.90;;;;;;5043147;28;20532;-46
2022/11/21 03:00:07;;;;;;;7.28;3.83;;;3.20;99.90;;;;;;5049836;28;20081;-47
2022/11/21 03:02:34;;;;;;;8.55;3.42;;;3.10;99.90;;;;;;5049597;28;20037;-46
2022/11/21 03:05:01;;;;;;;;;;;3.20;99.90;;;;;;5032303;28;20072;-46
2022/11/21 03:07:28;;;;;;;6.90;3.53;;;3.20;99.90;;;;;;5042738;28;20361;-46
2022/11/21 03:09:55;;;;;;;5.20;3.20;;;3.30;99.90;;;;;;5035454;28;20045;-47
2022/11/21 03:12:22;;;;;;;6.43;3.60;;;3.30;99.90;;;;;;5030379;28;20076;-46
2022/11/21 03:14:48;;;;;;;4.82;3.03;;;3.30;99.90;;;;;;5036138;28;20075;-46
2022/11/21 03:17:15;;;;;;;6.55;4.05;;;3.30;99.90;;;;;;5049141;28;20120;-47
2022/11/21 03:19:42;;;;;;;7.53;3.80;;;3.30;99.90;;;;;;5030860;28;20088;-46
2022/11/21 03:22:10;;;;;;;6.70;3.88;;;3.40;99.90;;;;;;5031958;28;20053;-46
2022/11/21 03:24:37;;;;;;;5.65;3.33;;;3.40;99.90;;;;;;5042843;28;20072;-46
2022/11/21 03:27:04;;;;;;;5.32;3.90;;;3.40;99.90;;;;;;5050233;28;20073;-48
2022/11/21 03:29:30;;;;;;;7.30;3.83;;;3.40;99.90;;;;;;5051326;28;20068;-46
2022/11/21 03:31:58;;;;;;;9.00;3.60;;;3.40;99.90;;;;;;5038676;28;20127;-47
2022/11/21 03:34:24;;;;;;;6.05;3.72;;;3.30;99.90;;;;;;5042554;28;20108;-46
2022/11/21 03:36:52;;;;;;;7.18;3.42;;;3.30;99.90;;;;;;5045006;28;20051;-47
2022/11/21 03:39:18;;;;;;;5.22;3.78;;;3.20;99.90;;;;;;5030367;28;20128;-46
2022/11/21 03:41:45;;;;;;;7.25;3.50;;;3.20;99.90;;;;;;5042047;28;20037;-46
2022/11/21 03:44:12;;;;;;;6.03;3.45;;;3.20;99.90;;;;;;5034108;28;20057;-47
2022/11/21 03:46:41;;;;;;;5.80;2.97;;;3.20;99.90;;;;;;5032150;28;20061;-46
2022/11/21 03:49:09;;;;;;;5.70;3.63;;;3.10;99.90;;;;;;5030134;28;20455;-46
2022/11/21 03:51:37;;;;;;;7.18;3.15;;;3.20;99.90;;;;;;5034021;28;20061;-46
2022/11/21 03:54:05;;;;;;;8.75;4.15;;;3.20;99.90;;;;;;5030602;28;20469;-46
2022/11/21 03:56:31;;;;;;;7.68;4.28;;;3.20;99.90;;;;;;5030090;28;20069;-47
2022/11/21 03:58:58;;;;;;;8.23;4.13;;;3.10;99.90;;;;;;5044961;28;20481;-47
2022/11/21 04:01:25;;;;;;;9.23;4.05;;;3.20;99.90;;;;;;5031228;28;20049;-46
2022/11/21 04:03:52;;;;;;;4.32;2.45;;;3.20;99.90;;;;;;5030975;28;20050;-46
2022/11/21 04:06:21;;;;;;;6.47;3.25;;;3.10;99.90;;;;;;5030865;28;20125;-47
2022/11/21 04:08:49;;;;;;;5.25;2.90;;;3.10;99.90;;;;;;5050581;28;20080;-46
2022/11/21 04:11:16;;;;;;;5.47;3.45;;;3.00;99.90;;;;;;5038740;28;20075;-46
2022/11/21 04:13:43;;;;;;;4.93;2.78;;;3.00;99.90;;;;;;5042981;28;20072;-47
2022/11/21 04:16:09;;;;;;;5.65;3.05;;;2.90;99.90;;;;;;5041816;28;20076;-46
2022/11/21 04:18:36;;;;;;;4.47;2.88;;;2.90;99.90;;;;;;5030634;28;20124;-46
2022/11/21 04:21:05;;;;;;;3.10;2.03;;;2.80;99.90;;;;;;5035405;28;20072;-46
2022/11/21 04:23:32;;;;;;;2.63;1.60;;;2.80;99.90;;;;;;5053192;28;20041;-46
2022/11/21 04:25:59;;;;;;;2.20;1.40;;;2.80;99.90;;;;;;5053234;28;20072;-46
2022/11/21 04:28:26;;;;;;;5.20;2.10;;;2.80;99.90;;;;;;5049620;28;20099;-48
2022/11/21 04:30:53;;;;;;;7.15;3.10;;;2.80;99.90;;;;;;5051995;28;20068;-46
2022/11/21 04:33:21;;;;;;;5.28;1.75;;;2.70;99.90;;;;;;5052764;28;20087;-46
2022/11/21 04:35:47;;;;;;;4.00;1.65;;;2.70;99.90;;;;;;5049921;28;20041;-46
2022/11/21 04:38:14;;;;;;;2.15;1.00;;;2.70;99.90;;;;;;5049417;28;20115;-47
2022/11/21 04:40:43;;;;;;;2.10;1.35;;;2.80;99.90;;;;;;5043686;28;20124;-46
2022/11/21 04:43:10;;;;;;;3.90;2.33;;;2.90;99.90;;;;;;5046252;28;20080;-46
2022/11/21 04:45:36;;;;;;;4.43;2.35;;;2.90;99.90;;;;;;5034089;28;20151;-47
2022/11/21 04:48:03;;;;;;;3.80;2.50;;;2.90;99.90;;;;;;5032016;28;20077;-47
2022/11/21 04:50:30;;;;;;;5.55;2.45;;;2.80;99.90;;;;;;5040826;28;20077;-47
2022/11/21 04:52:57;;;;;;;7.03;3.15;;;2.70;99.90;;;;;;5032374;28;20539;-48
2022/11/21 04:55:28;;;;;;;4.22;2.45;;;2.60;99.90;;;;;;5042170;28;20060;-47
2022/11/21 04:57:55;;;;;;;4.95;2.60;;;2.50;99.90;;;;;;5053039;28;20080;-47
2022/11/21 05:00:21;;;;;;;4.60;2.30;;;2.60;99.90;;;;;;5051285;28;20127;-46
2022/11/21 05:02:50;;;;;;;8.82;3.10;;;2.50;99.90;;;;;;5046451;28;20152;-47
2022/11/21 05:05:17;;;;;;;12.45;3.58;;;2.50;99.90;;;;;;5050405;28;20069;-46
2022/11/21 05:07:44;;;;;;;7.95;3.60;;;2.60;99.90;;;;;;5052249;28;20094;-45
2022/11/21 05:10:11;;;;;;;8.20;3.40;;;2.60;99.90;;;;;;5043174;28;20489;-46
2022/11/21 05:15:22;;;;;;;5.78;3.50;;;2.70;99.90;;;;;;5035738;28;20141;-47
2022/11/21 05:17:51;;;;;;;7.40;3.40;;;2.70;99.90;;;;;;5032831;28;20452;-46
2022/11/21 05:20:18;;;;;;;6.22;3.30;;;2.80;99.90;;;;;;5049919;28;20064;-47
2022/11/21 05:22:49;;;;;;;8.13;3.55;;;2.80;99.90;;;;;;5031692;28;20037;-46
2022/11/21 05:25:16;;;;;;;5.90;3.17;;;2.90;99.90;;;;;;5034785;28;20084;-46
2022/11/21 05:27:43;;;;;;;3.88;2.13;;;2.90;99.90;;;;;;5047452;28;20102;-46
2022/11/21 05:30:10;;;;;;;10.40;3.83;;;2.90;99.90;;;;;;5035535;28;20132;-47
2022/11/21 05:32:37;;;;;;;15.02;5.95;;;3.00;99.90;;;;;;5042116;28;20065;-46
2022/11/21 05:35:04;;;;;;;12.73;4.65;;;3.00;99.90;;;;;;5039415;28;20120;-46
2022/11/21 05:37:31;;;;;;;8.85;3.70;;;3.00;99.90;;;;;;5042228;28;20401;-47
2022/11/21 05:39:58;;;;;;;6.18;3.45;;;3.00;99.90;;;;;;5038153;28;20072;-46
2022/11/21 05:45:09;;;;;;;7.50;3.38;;;2.50;99.90;;;;;;5039719;28;20156;-46
2022/11/21 05:47:36;;;;;;;5.32;3.22;;;3.10;99.90;;;;;;5045046;28;20068;-46
2022/11/21 05:50:03;;;;;;;6.40;3.38;;;3.10;99.90;;;;;;5047551;28;20405;-46
2022/11/21 05:52:30;;;;;;;5.75;3.08;;;3.20;99.90;;;;;;5037928;28;20049;-46
2022/11/21 05:54:57;;;;;;;6.72;2.83;;;3.20;99.90;;;;;;5037454;28;20069;-47
2022/11/21 05:57:24;;;;;;;8.65;4.10;;;3.30;99.90;;;;;;5033119;28;20069;-47
2022/11/21 05:59:50;;;;;;;5.55;3.22;;;3.30;99.90;;;;;;5040383;28;20052;-47
2022/11/21 06:05:03;;;;;;;7.18;3.40;;;3.20;99.90;;;;;;5049873;28;20044;-46
2022/11/21 06:07:29;;;;;;;6.45;3.30;;;3.20;99.90;;;;;;5048614;28;20125;-46
2022/11/21 06:09:56;;;;;;;6.20;3.50;;;3.10;99.90;;;;;;5043398;28;20409;-47
2022/11/21 06:12:23;;;;;;;6.68;3.95;;;3.10;99.90;;;;;;5049122;28;20044;-46
2022/11/21 06:14:51;;;;;;;8.18;3.75;;;3.10;99.90;;;;;;5043691;28;20056;-47
2022/11/21 06:17:18;;;;;;;7.82;4.05;;;3.10;99.90;;;;;;5031281;28;20073;-46
2022/11/21 06:19:45;;;;;;;7.90;4.57;;;3.10;99.90;;;;;;5034229;28;20065;-46
2022/11/21 06:22:11;;;;;;;8.68;4.57;;;3.10;99.90;;;;;;5031481;28;20050;-46
2022/11/21 06:24:38;;;;;;;8.30;5.03;;;3.10;99.90;;;;;;5030424;28;20100;-46
2022/11/21 06:27:05;;;;;;;11.20;4.90;;;3.00;99.90;;;;;;5032308;28;20069;-47
2022/11/21 06:29:31;;;;;;;7.25;4.63;;;3.00;99.90;;;;;;5041658;28;20156;-46
2022/11/21 06:31:58;;;;;;;7.88;4.00;;;3.00;99.90;;;;;;5042806;28;20056;-47
2022/11/21 06:34:25;;;;;;;10.05;3.15;;;3.00;99.90;;;;;;5050716;28;20045;-50
2022/11/21 06:36:53;;;;;;;8.55;4.75;;;3.00;99.90;;;;;;5039269;28;20361;-46
2022/11/21 06:39:20;;;;;;;8.63;3.88;;;3.00;99.90;;;;;;5045452;28;20041;-46
2022/11/21 06:41:49;;;;;;;9.77;4.07;;;3.00;99.90;;;;;;5051094;28;20052;-46
2022/11/21 06:44:17;;;;;;;12.27;4.55;;;3.00;99.90;;;;;;5047146;28;20052;-46
2022/11/21 06:46:44;;;;;;;14.68;4.97;;;3.10;99.90;;;;;;5050965;28;20037;-46
2022/11/21 06:49:16;;;;;;;8.45;4.45;;;3.10;99.90;;;;;;5044349;28;20045;-46
2022/11/21 06:51:43;;;;;;;11.35;4.25;;;3.20;99.90;;;;;;5046870;28;20082;-46
2022/11/21 06:54:10;;;;;;;7.72;4.57;;;3.20;99.90;;;;;;5042774;28;20095;-47
2022/11/21 06:56:42;;;;;;;8.73;4.20;;;3.20;99.90;;;;;;5030192;28;20083;-47
2022/11/21 06:59:09;;;;;;;10.18;4.20;;;3.20;99.90;;;;;;5037577;28;20094;-44
2022/11/21 07:02:17;;;;;;;6.60;3.88;;;3.20;99.90;;;;;;5068090;22;20282;-47
2022/11/21 07:05:26;;;;;;;6.82;4.00;;;3.20;99.90;;;;;;5046229;28;20078;-47
2022/11/21 07:08:00;;;;;;;9.20;4.47;;;3.20;99.90;;;;;;5065009;28;20123;-46
2022/11/21 07:10:28;;;;;;;9.15;4.35;;;3.20;99.90;;;;;;5060421;28;20558;-46
2022/11/21 07:15:43;;;;;;;12.65;5.75;;;3.20;99.90;;;;;;5054043;28;20086;-47
2022/11/21 07:18:09;;;;;;;;;;;3.20;99.90;;;;;;5063742;28;20084;-46
2022/11/21 07:20:36;;;;;;;6.03;3.17;;;3.10;99.90;;;;;;5050338;28;20358;-47
2022/11/21 07:23:04;;;;;;;6.40;3.85;;;3.10;99.90;;;;;;5049993;28;20037;-46
2022/11/21 07:25:30;;;;;;;5.90;3.00;;;3.10;99.90;;;;;;5062189;28;20462;-46
2022/11/21 07:28:03;;;;;;;4.05;2.55;;;3.10;99.90;;;;;;5051958;28;20041;-48
2022/11/21 07:30:29;;;;;;;;;;;3.00;99.90;;;;;;5050798;28;20124;-46
2022/11/21 07:32:58;;;;;;;7.80;3.95;;;3.00;99.90;;;;;;5049406;28;19983;-46
2022/11/21 07:35:25;;;;;;;3.60;2.28;;;2.90;99.90;;;;;;5050312;28;20120;-46
2022/11/21 07:37:52;;;;;;;3.65;2.08;;;2.70;99.90;;;;;;5049842;28;20065;-46
2022/11/21 07:40:19;;;;;;;3.17;1.95;;;2.70;99.90;;;;;;5051390;28;20504;-48
2022/11/21 07:42:46;;;;;;;3.25;2.10;;;2.60;99.90;;;;;;5061395;28;20083;-46
2022/11/21 07:45:14;;;;;;;4.32;2.22;;;2.50;99.90;;;;;;5070611;28;20068;-48
2022/11/21 07:47:41;;;;;;;5.22;2.30;;;2.50;99.90;;;;;;5069896;28;20083;-46
2022/11/21 07:50:09;;;;;;;3.05;1.65;;;2.50;99.90;;;;;;5067149;28;20108;-46
2022/11/21 07:52:37;;;;;;;3.60;1.67;;;2.50;99.90;;;;;;5061225;28;20036;-48
2022/11/21 07:55:04;;;;;;;3.60;2.20;;;2.40;99.90;;;;;;5070680;28;20068;-46
2022/11/21 07:57:31;;;;;;;5.13;2.42;;;2.40;99.90;;;;;;5070758;28;20454;-47
2022/11/21 07:59:58;;;;;;;3.42;2.05;;;2.40;99.90;;;;;;5068615;28;20076;-47
2022/11/21 08:02:27;;;;;;;3.55;1.75;;;2.40;99.90;;;;;;5058618;28;20119;-46
2022/11/21 08:04:53;;;;;;;5.97;2.85;;;2.50;99.90;;;;;;5061739;28;20460;-47
2022/11/21 08:07:22;;;;;;;4.85;2.85;;;2.40;99.90;;;;;;5067729;28;20074;-46
2022/11/21 08:09:49;;;;;;;11.60;5.32;;;2.40;99.90;;;;;;5065958;28;20037;-46
2022/11/21 08:12:16;;;;;;;5.50;2.72;;;2.40;99.90;;;;;;5062652;28;20465;-47
2022/11/21 08:14:43;;;;;;;8.63;4.53;;;2.40;99.90;;;;;;5069794;28;20562;-46
2022/11/21 08:17:09;;;;;;;7.25;4.03;;;2.30;99.90;;;;;;5072887;28;20519;-48
2022/11/21 08:19:36;;;;;;;10.25;4.72;;;2.30;99.90;;;;;;5080198;22;20051;-46
2022/11/21 08:22:03;;;;;;;12.02;4.28;;;2.20;99.90;;;;;;5073179;28;20052;-46
2022/11/21 08:24:29;;;;;;;7.97;4.07;;;2.30;99.90;;;;;;5065894;28;20757;-46
2022/11/21 08:26:58;;;;;;;9.93;5.40;;;2.40;99.90;;;;;;5073918;28;20048;-47
2022/11/21 08:29:25;;;;;;;8.88;4.55;;;2.30;99.90;;;;;;5073877;28;20045;-46
2022/11/21 08:31:52;;;;;;;9.60;4.43;;;2.30;99.90;;;;;;5066864;28;20068;-47
2022/11/21 08:34:19;;;;;;;5.18;3.13;;;2.20;99.90;;;;;;5073218;28;20036;-47
2022/11/21 08:36:46;;;;;;;6.40;3.88;;;2.30;99.90;;;;;;5072673;28;20064;-47
2022/11/21 08:39:13;;;;;;;10.13;4.45;;;2.30;99.90;;;;;;5072303;28;20087;-47
2022/11/21 08:44:24;;;;;;;10.07;5.50;;;2.40;99.90;;;;;;5073236;28;20079;-48
2022/11/21 08:46:51;;;;;;;9.23;4.88;;;2.60;99.90;;;;;;5074170;28;20132;-47
2022/11/21 08:49:18;;;;;;;10.70;4.97;;;2.60;99.90;;;;;;5071140;28;20041;-47
2022/11/21 08:51:49;;;;;;;7.63;3.58;;;2.60;99.90;;;;;;5073388;28;20137;-46
2022/11/21 08:54:17;;;;;;;5.95;3.20;;;2.60;99.90;;;;;;5072788;28;20075;-49
2022/11/21 08:56:43;;;;;;;7.13;3.80;;;2.70;99.90;;;;;;5073364;28;20075;-47
2022/11/21 08:59:10;;;;;;;5.97;3.90;;;2.70;99.90;;;;;;5065396;28;20079;-47
2022/11/21 09:01:37;;;;;;;11.60;3.25;;;2.70;99.90;;;;;;5063069;28;20098;-46
2022/11/21 09:04:05;;;;;;;8.02;4.40;;;2.70;99.90;;;;;;5072733;28;20045;-47
2022/11/21 09:06:32;;;;;;;8.70;4.30;;;2.60;99.90;;;;;;5073378;28;20099;-47
2022/11/21 09:08:58;;;;;;;8.98;3.97;;;2.40;99.90;;;;;;5070984;28;20045;-47
2022/11/21 09:11:25;;;;;;;10.43;2.97;;;2.50;99.90;;;;;;5067036;28;20468;-51
2022/11/21 09:19:28;;;;;;;4.78;2.53;;;2.50;99.90;;;;;;5070391;28;20458;-47
2022/11/21 09:21:55;;;;;;;;;;;2.60;99.90;;;;;;5072999;28;20052;-47
2022/11/21 09:24:22;;;;;;;2.78;1.92;;;2.70;99.90;;;;;;5064804;28;19989;-49
2022/11/21 09:26:48;;;;;;;2.17;1.55;;;2.80;99.90;;;;;;5072902;28;20072;-46
2022/11/21 09:29:15;;;;;;;7.13;4.15;;;2.90;99.90;;;;;;5071875;28;20072;-47
2022/11/21 09:31:43;;;;;;;6.85;3.85;;;3.00;99.90;;;;;;5064295;28;20040;-47
2022/11/21 09:34:09;;;;;;;5.55;3.40;;;3.10;99.90;;;;;;5072271;28;20094;-47
2022/11/21 09:36:36;;;;;;;4.82;2.88;;;3.30;99.90;;;;;;5069069;28;20284;-47
2022/11/21 09:39:04;;;;;;;5.75;3.25;;;3.40;99.90;;;;;;5072417;28;20129;-49
2022/11/21 09:42:00;;;;;;;5.95;3.75;;;3.50;99.90;;;;;;5071708;28;20044;-48
2022/11/21 09:45:08;;;;;;;8.15;3.58;;;3.60;99.90;;;;;;5032605;28;20405;-49
2022/11/21 09:47:39;;;;;;;10.43;5.72;;;3.70;99.90;;;;;;5071150;28;20123;-46
2022/11/21 09:50:17;;;;;;;11.90;7.63;;;3.50;99.90;;;;;;5072476;28;20072;-47
2022/11/21 09:52:50;;;;;;;10.07;5.90;;;3.40;99.90;;;;;;5068014;28;20387;-48
2022/11/21 09:55:23;;;;;;;8.38;5.22;;;3.30;99.90;;;;;;5071220;28;20045;-47
2022/11/21 09:57:50;;;;;;;15.98;8.80;;;3.30;99.90;;;;;;5071774;28;20064;-47
2022/11/21 10:00:22;;;;;;;14.35;7.25;;;3.10;99.90;;;;;;5072143;28;20067;-47
2022/11/21 10:02:50;;;;;;;13.52;7.90;;;3.20;99.90;;;;;;5068473;28;20075;-46
2022/11/21 10:05:24;;;;;;;11.95;6.65;;;3.20;99.90;;;;;;5072121;28;20468;-48
2022/11/21 10:07:56;;;;;;;11.55;7.13;;;3.30;99.90;;;;;;5071756;28;20072;-46
2022/11/21 10:10:49;;;;;;;16.55;8.23;;;3.30;99.90;;;;;;5070679;28;20383;-48
2022/11/21 10:13:42;;;;;;;8.63;5.53;;;3.40;99.90;;;;;;5071741;28;20072;-47
2022/11/21 10:16:35;;;;;;;9.15;5.57;;;3.50;99.90;;;;;;5067504;28;20115;-46
2022/11/21 10:19:36;;;;;;;7.97;5.20;;;3.60;99.90;;;;;;5068692;28;20539;-47
2022/11/21 10:22:27;;;;;;;8.65;5.78;;;3.60;99.90;;;;;;5063873;28;20088;-46
2022/11/21 10:24:58;;;;;;;21.50;11.95;;;3.80;99.90;;;;;;5066104;28;20060;-47
2022/11/21 10:27:31;;;;;;;9.23;5.45;;;3.90;99.90;;;;;;5069628;28;20151;-47
2022/11/21 10:30:06;;;;;;;5.15;3.83;;;4.00;99.90;;;;;;5070552;28;20072;-47
2022/11/21 10:32:42;;;;;;;7.55;4.30;;;4.00;99.90;;;;;;5071321;28;20497;-46
2022/11/21 10:35:14;;;;;;;10.55;6.38;;;4.00;99.90;;;;;;5067964;28;20142;-46
2022/11/21 10:38:00;;;;;;;12.07;6.55;;;3.90;99.90;;;;;;5071838;28;20040;-46
2022/11/21 10:40:30;;;;;;;8.93;5.60;;;3.80;99.90;;;;;;5070475;28;20064;-47
2022/11/21 10:46:05;;;;;;;7.40;4.97;;;3.80;99.90;;;;;;5067968;28;20139;-47
2022/11/21 10:48:32;;;;;;;10.05;5.30;;;3.60;99.90;;;;;;5070904;28;20076;-47
2022/11/21 10:51:20;;;;;;;9.68;5.60;;;3.60;99.90;;;;;;5066452;28;20116;-47
2022/11/21 10:56:35;;;;;;;9.80;4.78;;;3.60;99.90;;;;;;5071433;28;20036;-47
2022/11/21 10:59:17;;;;;;;15.40;7.40;;;3.60;99.90;;;;;;5068461;28;20032;-46
2022/11/21 11:01:56;;;;;;;18.63;8.10;;;3.50;99.90;;;;;;5068392;28;20064;-46
2022/11/21 11:04:22;;;;;;;12.93;7.13;;;3.50;99.90;;;;;;5070262;28;20529;-47
2022/11/21 11:06:55;;;;;;;14.07;6.38;;;3.50;99.90;;;;;;5047162;28;20049;-47
2022/11/21 11:09:29;;;;;;;10.57;5.40;;;3.50;99.90;;;;;;5070007;28;20094;-47
2022/11/21 11:12:22;;;;;;;15.95;7.40;;;3.60;99.90;;;;;;5070612;28;20079;-47
2022/11/21 11:14:55;;;;;;;10.80;5.35;;;3.70;99.90;;;;;;5066055;28;20046;-49
2022/11/21 11:17:30;;;;;;;13.65;7.05;;;3.80;99.90;;;;;;5070543;28;20072;-49
2022/11/21 11:20:36;;;;;;;13.20;7.30;;;3.90;99.90;;;;;;5069041;28;20080;-47
2022/11/21 11:23:18;;;;;;;14.95;8.27;;;4.10;99.90;;;;;;5064859;28;20045;-47
2022/11/21 11:25:50;;;;;;;18.52;9.52;;;4.10;99.90;;;;;;5068542;28;20052;-47
2022/11/21 11:28:20;;;;;;;16.50;8.57;;;4.00;99.90;;;;;;5069741;28;20036;-47
2022/11/21 11:30:48;;;;;;;16.30;7.93;;;4.10;99.90;;;;;;5070092;28;20052;-48
2022/11/21 11:33:35;;;;;;;13.27;6.95;;;4.10;99.90;;;;;;5068665;28;20078;-47
2022/11/21 11:36:43;;;;;;;8.93;4.68;;;4.20;99.90;;;;;;5070869;28;20028;-47
2022/11/21 11:39:31;;;;;;;11.68;5.78;;;4.30;99.90;;;;;;5016887;28;20060;-47
2022/11/21 11:48:02;;;;;;;7.22;4.53;;;4.80;99.90;;;;;;5070004;28;20072;-48
2022/11/21 11:50:45;;;;;;;5.97;4.07;;;5.00;99.90;;;;;;5070339;28;20033;-46
2022/11/21 11:53:50;;;;;;;7.10;4.32;;;5.00;99.90;;;;;;5068795;28;20068;-49
2022/11/21 11:56:31;;;;;;;11.10;6.78;;;5.00;99.90;;;;;;5020918;28;20411;-46
2022/11/21 11:59:13;;;;;;;9.02;4.43;;;5.10;99.90;;;;;;5065871;28;20134;-48
2022/11/21 12:01:45;;;;;;;6.03;3.78;;;5.40;99.90;;;;;;5065358;28;20134;-47
2022/11/21 12:04:28;;;;;;;4.60;3.05;;;5.70;99.90;;;;;;5070703;28;20048;-47
2022/11/21 12:07:18;;;;;;;4.55;3.22;;;5.70;99.90;;;;;;5067544;28;20492;-46
2022/11/21 12:10:17;;;;;;;5.85;2.97;;;5.50;99.90;;;;;;5060630;28;20045;-47
2022/11/21 12:12:49;;;;;;;6.25;3.38;;;5.50;99.90;;;;;;5069572;28;20060;-47
2022/11/21 12:18:15;;;;;;;3.97;2.33;;;5.20;99.90;;;;;;5070526;28;20044;-47
2022/11/21 12:20:51;;;;;;;4.05;2.70;;;5.10;99.90;;;;;;5064171;28;20528;-47
2022/11/21 12:23:18;;;;;;;3.38;2.42;;;4.90;99.90;;;;;;5070241;28;20140;-47
2022/11/21 12:26:17;;;;;;;3.25;2.40;;;4.90;99.90;;;;;;5069427;28;20068;-47
2022/11/21 12:29:19;;;;;;;5.68;2.88;;;4.90;99.90;;;;;;5051335;28;20094;-47
2022/11/21 12:32:08;;;;;;;2.95;2.30;;;4.90;99.90;;;;;;5069513;28;20051;-47
2022/11/21 12:35:14;;;;;;;3.70;2.40;;;4.90;99.90;;;;;;5069099;28;20044;-47
2022/11/21 12:37:54;;;;;;;3.08;2.22;;;5.00;99.90;;;;;;5069974;28;20068;-48
2022/11/21 12:40:32;;;;;;;3.38;2.05;;;5.20;99.90;;;;;;5069163;28;20492;-47
2022/11/21 12:43:23;;;;;;;4.90;2.22;;;5.40;99.90;;;;;;5064663;28;20114;-48
2022/11/21 12:46:01;;;;;;;3.08;1.63;;;5.60;99.90;;;;;;5066926;28;20048;-47
2022/11/21 12:54:34;;;;;;;3.28;1.67;;;6.10;99.90;;;;;;5067342;28;20064;-47
2022/11/21 12:57:15;;;;;;;19.90;2.25;;;6.00;99.90;;;;;;5050906;28;20477;-49
2022/11/21 13:02:59;;;;;;;2.88;1.77;;;5.50;99.90;;;;;;4964083;28;20085;-52
2022/11/21 13:05:32;;;;;;;3.55;1.90;;;5.20;99.90;;;;;;4972752;28;20053;-48
2022/11/21 13:08:09;;;;;;;3.83;2.45;;;5.10;99.90;;;;;;4974464;28;20133;-49
2022/11/21 13:10:39;;;;;;;3.33;2.43;;;4.90;99.90;;;;;;4964635;28;20066;-48
2022/11/21 13:13:25;;;;;;;2.85;2.03;;;5.00;99.90;;;;;;4973356;28;20121;-48
2022/11/21 13:16:35;;;;;;;2.53;1.90;;;5.10;99.90;;;;;;4968636;28;20117;-48
2022/11/21 13:19:13;;;;;;;;;;;5.10;99.90;;;;;;4973267;28;20463;-49
2022/11/21 13:21:48;;;;;;;6.97;3.60;;;5.00;99.90;;;;;;4973982;28;19922;-48
2022/11/21 13:24:43;;;;;;;6.90;3.25;;;4.90;99.90;;;;;;4973588;28;20089;-48
2022/11/21 13:27:28;;;;;;;5.45;3.58;;;4.80;99.90;;;;;;4974068;28;20478;-48
2022/11/21 13:30:11;;;;;;;5.70;3.13;;;4.90;99.90;;;;;;4969151;28;20093;-49
2022/11/21 13:32:44;;;;;;;5.93;2.60;;;4.90;99.90;;;;;;4967887;28;20113;-48
2022/11/21 13:35:20;;;;;;;4.40;2.20;;;4.90;99.90;;;;;;4970654;28;20043;-48
2022/11/21 13:38:02;;;;;;;3.05;1.90;;;5.10;99.90;;;;;;4973575;28;20109;-48
2022/11/21 13:40:28;;;;;;;3.65;2.50;;;5.10;99.90;;;;;;4970229;28;20566;-49
2022/11/21 13:43:08;;;;;;;2.30;2.00;;;5.10;99.90;;;;;;4972732;28;20051;-49
2022/11/21 13:45:56;;;;;;;2.78;2.10;;;5.10;99.90;;;;;;4967826;28;20059;-48
2022/11/21 13:48:53;;;;;;;3.83;2.33;;;5.10;99.90;;;;;;4968117;28;20090;-49
2022/11/21 13:51:32;;;;;;;2.70;1.83;;;5.20;99.90;;;;;;4971096;28;20500;-49
2022/11/21 13:54:31;;;;;;;4.93;3.00;;;5.10;99.90;;;;;;4972843;28;20122;-51
2022/11/21 13:57:23;;;;;;;4.05;3.05;;;5.10;99.90;;;;;;4963418;28;20070;-50
2022/11/21 13:59:49;;;;;;;6.60;3.80;;;5.00;99.90;;;;;;4965904;28;20488;-49
2022/11/21 14:02:44;;;;;;;5.22;3.53;;;5.00;99.90;;;;;;4972075;28;20118;-50
2022/11/21 14:05:16;;;;;;;5.32;3.50;;;5.00;99.90;;;;;;4977128;28;20605;-49
2022/11/21 14:07:44;;;;;;;5.60;3.53;;;5.00;99.90;;;;;;4964614;28;20046;-50
2022/11/21 14:10:24;;;;;;;5.78;2.60;;;4.90;99.90;;;;;;4973361;28;20074;-48